Time;durP1;ratioP1;P1;durP2;ratioP2;P2;SDS_P1;SDS_P2;PMS_P1;PMS_P2;Temp;Humidity;BMP_temperature;BMP_pressure;BME280_temperature;BME280_humidity;BME280_pressure;Samples;Min_cycle;Max_cycle;Signal;HPM_P1;HPM_P2
2023/06/28 00:01:27;;;;;;;4.40;2.33;;;12.60;99.90;;;;;;5037892;28;20223;-79
2023/06/28 00:03:55;;;;;;;7.60;2.47;;;12.60;99.90;;;;;;5038140;28;20279;-84
2023/06/28 00:06:22;;;;;;;3.33;2.10;;;12.70;99.90;;;;;;5035772;28;20206;-84
2023/06/28 00:08:49;;;;;;;3.20;2.13;;;12.70;99.90;;;;;;5038595;28;20663;-80
2023/06/28 00:11:16;;;;;;;3.37;2.30;;;12.80;99.90;;;;;;5038309;28;20895;-81
2023/06/28 00:13:43;;;;;;;4.63;2.30;;;12.60;99.90;;;;;;5039039;28;20199;-82
2023/06/28 00:16:09;;;;;;;3.57;2.07;;;12.60;99.90;;;;;;5038450;28;20222;-81
2023/06/28 00:18:36;;;;;;;4.23;1.97;;;12.60;99.90;;;;;;5038814;28;20918;-80
2023/06/28 00:21:04;;;;;;;4.83;2.37;;;12.50;99.90;;;;;;5039009;28;20703;-80
2023/06/28 00:23:32;;;;;;;6.33;2.67;;;12.40;99.90;;;;;;5039012;28;20719;-82
2023/06/28 00:25:58;;;;;;;5.33;2.03;;;12.50;99.90;;;;;;5038638;28;20211;-82
2023/06/28 00:28:25;;;;;;;7.13;2.10;;;12.40;99.90;;;;;;5038362;28;20215;-81
2023/06/28 00:30:52;;;;;;;4.73;2.23;;;12.20;99.90;;;;;;5038796;28;20227;-82
2023/06/28 00:33:20;;;;;;;5.17;2.30;;;12.30;99.90;;;;;;5037810;28;20208;-80
2023/06/28 00:35:47;;;;;;;3.10;2.23;;;12.30;99.90;;;;;;5038466;28;20215;-82
2023/06/28 00:38:15;;;;;;;2.57;2.13;;;12.30;99.90;;;;;;5038789;28;20219;-81
2023/06/28 00:40:41;;;;;;;3.63;2.07;;;12.30;99.90;;;;;;5038957;28;20216;-84
2023/06/28 00:43:08;;;;;;;6.10;2.00;;;12.30;99.90;;;;;;5033663;28;20211;-83
2023/06/28 00:45:35;;;;;;;4.30;2.37;;;12.30;99.90;;;;;;5038145;28;20196;-80
2023/06/28 00:48:02;;;;;;;8.83;2.50;;;12.40;99.90;;;;;;5038517;28;20214;-86
2023/06/28 00:50:29;;;;;;;6.10;2.00;;;12.50;99.90;;;;;;5039007;28;20226;-82
2023/06/28 00:52:56;;;;;;;4.07;2.23;;;12.50;99.90;;;;;;5039375;28;20667;-82
2023/06/28 00:55:25;;;;;;;3.77;2.17;;;12.40;99.90;;;;;;5038911;28;20231;-82
2023/06/28 00:57:52;;;;;;;3.97;2.63;;;12.30;99.90;;;;;;5036772;28;20640;-81
2023/06/28 01:00:19;;;;;;;3.90;2.53;;;12.20;99.90;;;;;;5034827;28;20212;-81
2023/06/28 01:02:46;;;;;;;6.27;2.63;;;12.20;99.90;;;;;;5034432;28;20220;-82
2023/06/28 01:05:16;;;;;;;4.07;2.40;;;12.10;99.90;;;;;;5034768;28;20724;-83
2023/06/28 01:07:44;;;;;;;5.77;2.33;;;12.00;99.90;;;;;;5022851;28;20199;-84
2023/06/28 01:10:12;;;;;;;2.53;2.20;;;12.00;99.90;;;;;;5037736;28;20191;-82
2023/06/28 01:12:41;;;;;;;5.23;2.40;;;12.10;99.90;;;;;;5037010;28;20214;-83
2023/06/28 01:15:09;;;;;;;6.10;3.00;;;12.10;99.90;;;;;;5036233;28;20210;-80
2023/06/28 01:17:36;;;;;;;4.10;2.47;;;12.00;99.90;;;;;;5036987;28;20202;-82
2023/06/28 01:20:04;;;;;;;7.10;2.70;;;12.20;99.90;;;;;;5036657;28;20563;-85
2023/06/28 01:22:32;;;;;;;4.57;2.40;;;12.40;99.90;;;;;;5036539;28;20314;-81
2023/06/28 01:25:00;;;;;;;3.67;2.33;;;12.40;99.90;;;;;;5037811;28;20204;-81
2023/06/28 01:27:28;;;;;;;4.67;2.37;;;12.20;99.90;;;;;;5038413;28;20728;-83
2023/06/28 01:29:56;;;;;;;7.57;2.70;;;12.30;99.90;;;;;;5037473;28;20195;-82
2023/06/28 01:32:23;;;;;;;4.40;2.57;;;12.30;99.90;;;;;;5037471;28;20250;-82
2023/06/28 01:34:50;;;;;;;3.93;2.30;;;12.30;99.90;;;;;;5035896;28;20611;-85
2023/06/28 01:37:17;;;;;;;11.37;2.87;;;12.30;99.90;;;;;;5036632;28;20213;-82
2023/06/28 01:39:46;;;;;;;6.80;2.60;;;12.40;99.90;;;;;;5037506;28;20239;-82
2023/06/28 01:42:15;;;;;;;8.23;2.77;;;12.30;99.90;;;;;;5037863;28;20215;-82
2023/06/28 01:44:42;;;;;;;4.67;2.23;;;12.10;99.90;;;;;;5032750;28;20226;-80
2023/06/28 01:47:09;;;;;;;6.63;2.30;;;12.00;99.90;;;;;;5023755;28;20206;-83
2023/06/28 01:49:38;;;;;;;4.30;2.63;;;12.10;99.90;;;;;;5037265;28;20203;-85
2023/06/28 01:52:05;;;;;;;7.77;2.27;;;12.10;99.90;;;;;;5037108;28;20273;-83
2023/06/28 01:54:33;;;;;;;3.90;2.23;;;12.00;99.90;;;;;;5036398;28;20330;-82
2023/06/28 01:57:00;;;;;;;5.60;2.17;;;12.10;99.90;;;;;;5037407;28;20599;-81
2023/06/28 01:59:29;;;;;;;9.20;2.67;;;12.10;99.90;;;;;;5017158;28;20200;-85
2023/06/28 02:01:56;;;;;;;5.67;2.17;;;12.10;99.90;;;;;;5032050;28;20231;-81
2023/06/28 02:04:23;;;;;;;6.80;2.43;;;12.10;99.90;;;;;;5036887;28;20223;-83
2023/06/28 02:06:50;;;;;;;4.03;2.43;;;12.20;99.90;;;;;;5037426;28;20203;-80
2023/06/28 02:09:17;;;;;;;6.87;2.37;;;12.10;99.90;;;;;;5036942;28;20211;-85
2023/06/28 02:11:43;;;;;;;5.80;2.67;;;12.10;99.90;;;;;;5036628;28;20220;-80
2023/06/28 02:14:10;;;;;;;6.20;2.40;;;12.10;99.90;;;;;;5036793;28;20286;-80
2023/06/28 02:16:41;;;;;;;8.73;2.73;;;12.00;99.90;;;;;;5036488;28;20211;-80
2023/06/28 02:19:12;;;;;;;3.97;2.40;;;12.10;99.90;;;;;;5036442;28;20660;-83
2023/06/28 02:21:40;;;;;;;5.27;2.50;;;12.10;99.90;;;;;;5036107;28;20224;-80
2023/06/28 02:24:08;;;;;;;4.77;2.40;;;12.00;99.90;;;;;;5029175;28;20271;-82
2023/06/28 02:26:35;;;;;;;5.73;2.80;;;11.90;99.90;;;;;;5017319;28;20258;-81
2023/06/28 02:29:02;;;;;;;13.53;6.60;;;11.90;99.90;;;;;;5035551;28;20208;-84
2023/06/28 02:31:29;;;;;;;25.53;15.00;;;12.00;99.90;;;;;;5036304;28;20801;-81
2023/06/28 02:33:57;;;;;;;6.23;3.50;;;11.90;99.90;;;;;;5036233;28;20263;-85
2023/06/28 02:36:24;;;;;;;5.33;2.40;;;12.00;99.90;;;;;;5035482;28;20211;-86
2023/06/28 02:38:51;;;;;;;10.33;3.00;;;11.90;99.90;;;;;;5037632;28;20353;-82
2023/06/28 02:41:18;;;;;;;6.47;2.70;;;11.90;99.90;;;;;;5036657;28;20223;-80
2023/06/28 02:43:45;;;;;;;5.97;2.47;;;11.80;99.90;;;;;;5037503;28;20212;-80
2023/06/28 02:46:11;;;;;;;7.60;3.17;;;11.70;99.90;;;;;;5035935;28;20637;-82
2023/06/28 02:48:38;;;;;;;7.93;3.00;;;11.90;99.90;;;;;;5036401;28;20214;-80
2023/06/28 02:51:06;;;;;;;10.70;3.93;;;12.00;99.90;;;;;;5036588;28;20220;-82
2023/06/28 02:53:33;;;;;;;8.80;3.53;;;11.90;99.90;;;;;;5036292;28;20682;-81
2023/06/28 02:56:00;;;;;;;4.13;2.60;;;12.00;99.90;;;;;;5037467;28;20207;-81
2023/06/28 02:58:26;;;;;;;7.90;2.83;;;11.90;99.90;;;;;;5040045;28;20200;-82
2023/06/28 03:00:54;;;;;;;7.23;2.97;;;11.80;99.90;;;;;;5039411;28;20220;-83
2023/06/28 03:03:22;;;;;;;6.50;3.17;;;11.80;99.90;;;;;;5039251;28;20702;-80
2023/06/28 03:05:49;;;;;;;3.93;2.70;;;11.80;99.90;;;;;;5037876;28;20207;-80
2023/06/28 03:08:17;;;;;;;10.77;3.17;;;11.90;99.90;;;;;;5037618;28;20636;-82
2023/06/28 03:10:44;;;;;;;7.80;2.90;;;11.90;99.90;;;;;;5036746;28;20231;-83
2023/06/28 03:13:11;;;;;;;7.03;3.10;;;11.80;99.90;;;;;;5038230;28;20601;-84
2023/06/28 03:15:37;;;;;;;10.20;3.07;;;11.90;99.90;;;;;;5038396;28;20250;-85
2023/06/28 03:18:04;;;;;;;5.70;2.40;;;12.00;99.90;;;;;;5038987;28;20200;-84
2023/06/28 03:20:32;;;;;;;13.80;7.97;;;11.90;99.90;;;;;;5038560;28;20572;-81
2023/06/28 03:22:59;;;;;;;24.90;14.97;;;11.90;99.90;;;;;;5038580;28;20245;-81
2023/06/28 03:25:27;;;;;;;6.53;2.90;;;11.90;99.90;;;;;;5038373;28;20192;-79
2023/06/28 03:27:53;;;;;;;7.47;2.97;;;12.10;99.90;;;;;;5038064;28;20294;-81
2023/06/28 03:30:20;;;;;;;3.80;2.33;;;12.00;99.90;;;;;;5037515;28;20211;-82
2023/06/28 03:32:47;;;;;;;6.50;3.07;;;12.10;99.90;;;;;;5038385;28;20195;-80
2023/06/28 03:35:14;;;;;;;7.33;2.63;;;12.10;99.90;;;;;;5037746;28;20210;-80
2023/06/28 03:37:48;;;;;;;7.77;2.63;;;12.20;99.90;;;;;;5037920;28;20304;-81
2023/06/28 03:40:16;;;;;;;5.47;2.93;;;12.20;99.90;;;;;;5038265;28;20203;-81
2023/06/28 03:42:44;;;;;;;8.83;3.00;;;12.20;99.90;;;;;;5038020;28;20204;-81
2023/06/28 03:45:11;;;;;;;5.63;2.97;;;12.30;99.90;;;;;;5037379;28;20695;-80
2023/06/28 03:47:38;;;;;;;7.43;3.00;;;12.40;99.90;;;;;;5037323;28;20203;-80
2023/06/28 03:50:05;;;;;;;4.13;2.60;;;12.40;99.90;;;;;;5037861;28;20210;-79
2023/06/28 03:52:32;;;;;;;7.33;3.07;;;12.40;99.90;;;;;;5037843;28;20231;-81
2023/06/28 03:54:59;;;;;;;4.73;2.80;;;12.50;99.90;;;;;;5037379;28;20218;-80
2023/06/28 03:57:25;;;;;;;7.07;3.20;;;12.50;99.90;;;;;;5037707;28;20199;-83
2023/06/28 03:59:53;;;;;;;5.17;3.10;;;12.30;99.90;;;;;;5038161;28;20210;-83
2023/06/28 04:02:20;;;;;;;11.67;3.43;;;12.60;99.90;;;;;;5037465;28;20236;-82
2023/06/28 04:04:47;;;;;;;5.63;3.03;;;12.50;99.90;;;;;;5032794;28;20212;-82
2023/06/28 04:07:15;;;;;;;6.47;3.03;;;12.60;99.90;;;;;;5036332;28;20584;-83
2023/06/28 04:09:43;;;;;;;10.17;2.90;;;12.50;99.90;;;;;;5032672;28;20553;-82
2023/06/28 04:12:10;;;;;;;6.80;3.40;;;12.50;99.90;;;;;;5034357;28;20219;-81
2023/06/28 04:14:37;;;;;;;5.63;3.13;;;13.20;99.90;;;;;;5036251;28;20196;-80
2023/06/28 04:17:05;;;;;;;5.40;2.60;;;14.60;99.90;;;;;;5036922;28;20204;-80
2023/06/28 04:19:32;;;;;;;4.63;2.37;;;14.90;99.90;;;;;;5038167;28;20210;-80
2023/06/28 04:21:58;;;;;;;3.35;2.28;;;15.80;99.90;;;;;;5036558;28;20219;-81
2023/06/28 04:24:25;;;;;;;4.20;2.30;;;16.10;99.90;;;;;;5036817;28;20231;-80
2023/06/28 04:26:52;;;;;;;8.93;2.70;;;15.50;99.90;;;;;;5037050;28;20660;-80
2023/06/28 04:29:19;;;;;;;3.72;2.15;;;14.90;99.90;;;;;;5037153;28;20679;-82
2023/06/28 04:31:45;;;;;;;3.63;2.17;;;13.90;99.90;;;;;;5037571;28;20226;-81
2023/06/28 04:34:14;;;;;;;5.43;3.10;;;14.00;99.90;;;;;;5037637;28;20218;-82
2023/06/28 04:36:41;;;;;;;5.30;2.13;;;13.90;99.90;;;;;;5037930;28;20608;-82
2023/06/28 04:39:08;;;;;;;9.38;2.50;;;13.90;99.90;;;;;;5037375;28;20659;-80
2023/06/28 04:41:34;;;;;;;7.60;2.90;;;13.80;99.90;;;;;;5036884;28;20704;-83
2023/06/28 04:44:02;;;;;;;6.85;3.65;;;13.60;99.90;;;;;;5036593;28;20236;-83
2023/06/28 04:46:29;;;;;;;7.30;2.80;;;13.60;99.90;;;;;;5035992;28;20663;-81
2023/06/28 04:48:57;;;;;;;3.92;2.33;;;13.70;99.90;;;;;;5037054;28;20208;-81
2023/06/28 04:51:25;;;;;;;5.60;2.88;;;13.70;99.90;;;;;;5036761;28;20699;-82
2023/06/28 04:53:52;;;;;;;9.07;2.92;;;13.60;99.90;;;;;;5036867;28;20230;-82
2023/06/28 04:56:19;;;;;;;4.18;2.55;;;13.60;99.90;;;;;;5035988;28;20204;-80
2023/06/28 04:58:45;;;;;;;5.70;2.70;;;13.50;99.90;;;;;;5036206;28;20203;-80
2023/06/28 05:01:12;;;;;;;6.57;2.90;;;13.60;99.90;;;;;;5036799;28;20240;-83
2023/06/28 05:03:39;;;;;;;8.73;3.33;;;13.80;99.90;;;;;;5036012;28;20277;-80
2023/06/28 05:06:07;;;;;;;7.82;2.88;;;13.80;99.90;;;;;;5036394;28;20209;-83
2023/06/28 05:08:35;;;;;;;7.10;3.00;;;13.60;99.90;;;;;;5036661;28;20207;-82
2023/06/28 05:11:03;;;;;;;8.23;3.15;;;13.70;99.90;;;;;;5036819;28;20228;-80
2023/06/28 05:13:30;;;;;;;5.70;2.88;;;13.70;99.90;;;;;;5036294;28;20305;-81
2023/06/28 05:15:57;;;;;;;9.93;3.53;;;13.80;99.90;;;;;;5035212;28;20210;-84
2023/06/28 05:18:23;;;;;;;9.50;3.20;;;14.00;99.90;;;;;;5036412;28;20210;-80
2023/06/28 05:20:50;;;;;;;7.63;3.03;;;13.90;99.90;;;;;;5036845;28;20246;-79
2023/06/28 05:23:18;;;;;;;6.20;3.25;;;14.00;99.90;;;;;;5036344;28;20636;-81
2023/06/28 05:25:46;;;;;;;6.30;3.20;;;14.20;99.90;;;;;;5036425;28;20223;-80
2023/06/28 05:28:15;;;;;;;5.82;3.90;;;14.30;99.90;;;;;;5036487;28;20200;-83
2023/06/28 05:30:43;;;;;;;8.85;3.40;;;15.00;99.90;;;;;;5035897;28;20595;-80
2023/06/28 05:33:10;;;;;;;10.60;2.92;;;14.90;99.90;;;;;;5036531;28;20223;-81
2023/06/28 05:35:38;;;;;;;4.35;3.05;;;14.70;99.90;;;;;;5036108;28;20206;-84
2023/06/28 05:38:05;;;;;;;9.80;3.40;;;15.00;99.90;;;;;;5035998;28;20207;-81
2023/06/28 05:40:33;;;;;;;5.38;3.00;;;15.20;99.90;;;;;;5035896;28;20224;-81
2023/06/28 05:43:01;;;;;;;5.05;2.92;;;15.30;99.90;;;;;;5036670;28;20254;-83
2023/06/28 05:45:29;;;;;;;6.70;3.17;;;15.40;99.90;;;;;;5036575;28;20715;-83
2023/06/28 05:47:58;;;;;;;6.05;3.08;;;15.50;99.90;;;;;;5036159;28;20203;-82
2023/06/28 05:50:24;;;;;;;6.53;3.03;;;15.40;99.90;;;;;;5036133;28;20203;-82
2023/06/28 05:52:51;;;;;;;6.45;2.50;;;15.60;99.90;;;;;;5036365;28;20215;-80
2023/06/28 05:55:18;;;;;;;8.40;2.92;;;15.60;99.90;;;;;;5040711;28;20195;-80
2023/06/28 05:57:45;;;;;;;4.25;2.55;;;15.60;99.90;;;;;;5045419;28;20294;-82
2023/06/28 06:00:15;;;;;;;8.70;3.28;;;15.50;99.90;;;;;;5045327;28;20222;-80
2023/06/28 06:02:42;;;;;;;10.65;3.40;;;15.70;99.90;;;;;;5044995;28;20271;-80
2023/06/28 06:05:13;;;;;;;8.13;2.83;;;15.60;99.90;;;;;;5044812;28;20643;-80
2023/06/28 06:07:40;;;;;;;4.88;2.85;;;15.50;99.90;;;;;;5044142;28;20249;-80
2023/06/28 06:10:08;;;;;;;7.30;2.80;;;15.40;99.90;;;;;;5044878;28;20219;-80
2023/06/28 06:12:35;;;;;;;10.52;3.00;;;15.60;99.90;;;;;;5043292;28;20262;-79
2023/06/28 06:15:02;;;;;;;8.30;2.83;;;15.80;99.90;;;;;;5039676;28;20563;-80
2023/06/28 06:17:30;;;;;;;8.07;3.10;;;15.80;99.90;;;;;;5041389;28;20204;-80
2023/06/28 06:19:57;;;;;;;9.50;3.35;;;15.70;99.90;;;;;;5042694;28;20199;-80
2023/06/28 06:22:24;;;;;;;9.25;2.78;;;15.60;99.90;;;;;;5042914;28;20225;-81
2023/06/28 06:24:51;;;;;;;6.97;2.97;;;15.70;99.90;;;;;;5042922;28;20218;-81
2023/06/28 06:27:20;;;;;;;5.75;2.75;;;15.80;99.90;;;;;;5042673;28;20203;-80
2023/06/28 06:29:47;;;;;;;6.57;3.00;;;15.90;99.90;;;;;;5042726;28;20196;-81
2023/06/28 06:32:14;;;;;;;7.68;3.13;;;15.70;99.90;;;;;;5044361;28;20711;-80
2023/06/28 06:34:42;;;;;;;6.00;3.47;;;15.90;99.90;;;;;;5043177;28;20267;-81
2023/06/28 06:37:12;;;;;;;5.50;2.83;;;16.00;99.90;;;;;;5043311;28;20212;-80
2023/06/28 06:39:39;;;;;;;8.27;3.50;;;16.10;99.90;;;;;;5043326;28;20210;-81
2023/06/28 06:42:07;;;;;;;7.57;3.00;;;16.10;99.90;;;;;;5043845;28;20268;-80
2023/06/28 06:44:33;;;;;;;4.47;2.97;;;16.10;99.90;;;;;;5042932;28;20224;-81
2023/06/28 06:47:00;;;;;;;5.03;3.15;;;16.10;99.90;;;;;;5044265;28;20223;-79
2023/06/28 06:49:27;;;;;;;10.77;3.45;;;16.10;99.90;;;;;;5043592;28;20212;-79
2023/06/28 06:51:55;;;;;;;6.18;2.67;;;16.20;99.90;;;;;;5043104;28;20231;-81
2023/06/28 06:54:22;;;;;;;7.50;2.90;;;16.20;99.90;;;;;;5043490;28;20231;-79
2023/06/28 06:56:49;;;;;;;6.40;2.95;;;16.30;99.90;;;;;;5043355;28;20210;-80
2023/06/28 06:59:16;;;;;;;5.90;3.00;;;16.20;99.90;;;;;;5043606;28;20290;-79
2023/06/28 07:01:43;;;;;;;6.93;2.90;;;16.30;99.90;;;;;;5043467;28;20282;-79
2023/06/28 07:04:10;;;;;;;5.05;2.50;;;16.30;99.90;;;;;;5044167;28;20211;-80
2023/06/28 07:06:37;;;;;;;5.55;2.63;;;16.50;99.90;;;;;;5041550;28;20208;-79
2023/06/28 07:09:06;;;;;;;7.00;3.58;;;16.50;99.90;;;;;;5041324;28;20210;-80
2023/06/28 07:11:33;;;;;;;6.05;2.40;;;16.50;99.90;;;;;;5042831;28;20243;-80
2023/06/28 07:13:59;;;;;;;8.15;2.90;;;16.50;99.90;;;;;;5043280;28;20214;-79
2023/06/28 07:16:26;;;;;;;5.47;2.17;;;16.60;99.90;;;;;;5042412;28;20218;-80
2023/06/28 07:18:54;;;;;;;6.22;2.42;;;16.60;99.90;;;;;;5042059;28;20275;-80
2023/06/28 07:21:20;;;;;;;3.83;2.40;;;16.50;99.90;;;;;;5042329;28;20246;-80
2023/06/28 07:23:47;;;;;;;8.38;2.30;;;16.50;99.90;;;;;;5042585;28;20206;-81
2023/06/28 07:26:15;;;;;;;8.32;2.90;;;16.80;99.90;;;;;;5044043;28;20247;-80
2023/06/28 07:28:42;;;;;;;7.50;2.30;;;16.80;99.90;;;;;;5044008;28;20242;-80
2023/06/28 07:31:10;;;;;;;7.85;2.35;;;16.80;99.90;;;;;;5043448;28;20225;-81
2023/06/28 07:33:36;;;;;;;7.10;2.30;;;16.80;99.90;;;;;;5044817;28;20291;-81
2023/06/28 07:36:03;;;;;;;5.13;2.25;;;17.00;99.90;;;;;;5043357;28;20680;-80
2023/06/28 07:38:30;;;;;;;4.75;2.30;;;17.10;99.90;;;;;;5044154;28;20200;-80
2023/06/28 07:40:57;;;;;;;6.35;2.45;;;17.00;99.90;;;;;;5044426;28;20262;-80
2023/06/28 07:43:25;;;;;;;5.60;2.03;;;17.10;99.90;;;;;;5046363;28;20271;-80
2023/06/28 07:45:52;;;;;;;5.43;2.00;;;17.10;99.90;;;;;;5046923;28;20212;-79
2023/06/28 07:48:19;;;;;;;6.25;2.17;;;17.20;99.90;;;;;;5047543;28;20242;-79
2023/06/28 07:50:47;;;;;;;5.90;1.95;;;17.10;99.90;;;;;;5047379;28;20220;-80
2023/06/28 07:53:14;;;;;;;6.95;2.22;;;17.30;99.90;;;;;;5046799;28;20226;-80
2023/06/28 07:55:41;;;;;;;8.27;2.00;;;17.30;99.90;;;;;;5046460;28;20255;-79
2023/06/28 07:58:08;;;;;;;5.90;2.30;;;17.30;99.90;;;;;;5046891;28;20211;-81
2023/06/28 08:00:36;;;;;;;4.60;1.80;;;17.40;99.90;;;;;;5044347;28;20602;-81
2023/06/28 08:03:03;;;;;;;5.53;1.80;;;17.70;99.90;;;;;;5045011;28;20200;-80
2023/06/28 08:05:30;;;;;;;7.28;2.33;;;17.60;99.90;;;;;;5045551;28;20241;-80
2023/06/28 08:07:57;;;;;;;7.00;1.85;;;17.50;99.90;;;;;;5046139;28;20404;-80
2023/06/28 08:10:25;;;;;;;6.40;2.00;;;17.50;99.90;;;;;;5046216;28;20208;-81
2023/06/28 08:12:52;;;;;;;2.92;1.70;;;17.70;99.90;;;;;;5046011;28;20207;-80
2023/06/28 08:15:19;;;;;;;3.97;1.80;;;17.90;99.90;;;;;;5045866;28;20280;-80
2023/06/28 08:17:47;;;;;;;4.00;1.92;;;17.70;99.90;;;;;;5046307;28;20199;-79
2023/06/28 08:20:14;;;;;;;3.75;2.17;;;17.90;99.90;;;;;;5046436;28;20206;-80
2023/06/28 08:22:41;;;;;;;7.28;2.40;;;17.60;99.90;;;;;;5038062;28;20200;-81
2023/06/28 08:25:09;;;;;;;5.80;1.95;;;17.70;99.90;;;;;;5045616;28;20227;-79
2023/06/28 08:27:36;;;;;;;5.10;1.83;;;17.70;99.90;;;;;;5045164;28;20576;-80
2023/06/28 08:30:04;;;;;;;4.85;1.90;;;18.00;99.90;;;;;;5045060;28;20210;-80
2023/06/28 08:32:34;;;;;;;3.50;1.80;;;18.10;99.90;;;;;;5045433;28;20234;-79
2023/06/28 08:35:02;;;;;;;6.25;2.40;;;18.20;99.90;;;;;;5045407;28;20214;-80
2023/06/28 08:37:31;;;;;;;4.30;2.03;;;18.30;99.90;;;;;;5044650;28;20219;-80
2023/06/28 08:39:58;;;;;;;6.22;2.10;;;18.30;99.90;;;;;;5045227;28;20227;-81
2023/06/28 08:42:26;;;;;;;4.10;2.00;;;18.30;99.90;;;;;;5044019;28;20707;-80
2023/06/28 08:44:56;;;;;;;6.85;1.90;;;18.60;99.90;;;;;;5044595;28;20274;-80
2023/06/28 08:47:24;;;;;;;3.75;1.45;;;18.70;99.90;;;;;;5044887;28;20698;-80
2023/06/28 08:49:50;;;;;;;3.78;1.70;;;18.80;99.90;;;;;;5044253;28;20215;-79
2023/06/28 08:52:19;;;;;;;4.72;1.90;;;19.30;99.90;;;;;;5045848;28;20236;-80
2023/06/28 08:54:46;;;;;;;3.38;1.50;;;19.50;99.90;;;;;;5044339;28;20210;-80
2023/06/28 08:57:16;;;;;;;3.63;1.63;;;19.60;99.90;;;;;;5045163;28;20214;-80
2023/06/28 08:59:43;;;;;;;3.45;1.40;;;19.60;99.90;;;;;;5042857;28;20223;-80
2023/06/28 09:02:15;;;;;;;5.57;1.80;;;19.70;99.90;;;;;;5042238;28;20219;-79
2023/06/28 09:04:43;;;;;;;4.13;1.90;;;19.80;99.90;;;;;;5036450;28;20636;-79
2023/06/28 09:07:10;;;;;;;5.55;1.67;;;20.10;99.90;;;;;;5042159;28;20222;-83
2023/06/28 09:09:41;;;;;;;3.05;1.55;;;20.60;99.90;;;;;;5038840;28;20200;-81
2023/06/28 09:12:09;;;;;;;5.40;1.63;;;20.70;99.90;;;;;;5037842;28;20222;-82
2023/06/28 09:14:36;;;;;;;4.05;1.75;;;20.60;99.90;;;;;;5037994;28;20207;-83
2023/06/28 09:17:03;;;;;;;5.13;1.83;;;20.60;99.90;;;;;;5038781;28;20208;-80
2023/06/28 09:19:30;;;;;;;4.57;1.50;;;20.70;99.90;;;;;;5038676;28;20209;-82
2023/06/28 09:22:03;;;;;;;3.83;1.60;;;20.40;99.90;;;;;;5038305;28;20310;-80
2023/06/28 09:24:33;;;;;;;4.00;1.88;;;20.90;99.90;;;;;;5038255;28;20250;-80
2023/06/28 09:27:04;;;;;;;4.45;1.42;;;21.10;99.90;;;;;;5038119;28;20705;-82
2023/06/28 09:29:30;;;;;;;4.25;1.75;;;21.70;99.90;;;;;;5038467;28;20191;-82
2023/06/28 09:31:57;;;;;;;3.72;1.70;;;22.60;99.90;;;;;;5038667;28;20229;-81
2023/06/28 09:34:25;;;;;;;3.15;1.65;;;22.00;99.90;;;;;;5038839;28;20208;-83
2023/06/28 09:36:52;;;;;;;3.17;1.70;;;22.30;99.90;;;;;;5038757;28;20207;-82
2023/06/28 09:39:20;;;;;;;3.42;1.30;;;22.80;99.90;;;;;;5037339;28;20731;-83
2023/06/28 09:41:48;;;;;;;5.82;1.92;;;22.80;99.90;;;;;;5038068;28;20228;-83
2023/06/28 09:44:26;;;;;;;5.28;1.85;;;22.60;99.90;;;;;;5037404;28;20200;-83
2023/06/28 09:47:00;;;;;;;3.17;1.55;;;23.50;99.90;;;;;;5037021;28;20215;-83
2023/06/28 09:49:27;;;;;;;7.75;1.77;;;23.00;99.90;;;;;;5037013;28;20274;-82
2023/06/28 09:51:59;;;;;;;4.05;1.67;;;23.00;99.90;;;;;;5037147;28;20227;-82
2023/06/28 09:54:30;;;;;;;2.47;1.35;;;23.00;99.90;;;;;;5037464;28;20208;-80
2023/06/28 09:56:57;;;;;;;2.42;1.60;;;23.10;99.90;;;;;;5037131;28;20286;-82
2023/06/28 09:59:28;;;;;;;3.70;1.20;;;23.10;99.90;;;;;;5037371;28;20196;-79
2023/06/28 10:01:58;;;;;;;4.00;1.33;;;22.70;99.90;;;;;;5037061;28;20311;-83
2023/06/28 10:04:27;;;;;;;3.65;1.33;;;23.30;99.90;;;;;;5037212;28;20211;-83
2023/06/28 10:06:56;;;;;;;4.03;1.80;;;23.70;99.90;;;;;;5037088;28;20591;-82
2023/06/28 10:09:24;;;;;;;3.53;1.52;;;23.90;99.90;;;;;;5036607;28;20211;-80
2023/06/28 10:11:52;;;;;;;2.60;1.20;;;23.10;99.90;;;;;;5037115;28;20230;-80
2023/06/28 10:14:21;;;;;;;5.15;1.67;;;22.80;99.90;;;;;;5037359;28;20202;-80
2023/06/28 10:16:54;;;;;;;3.65;1.63;;;23.20;99.90;;;;;;5034020;28;20574;-82
2023/06/28 10:19:21;;;;;;;3.13;1.52;;;23.40;99.90;;;;;;5018398;28;20188;-83
2023/06/28 10:21:48;;;;;;;4.15;1.35;;;23.90;99.90;;;;;;5017047;28;20234;-82
2023/06/28 10:24:16;;;;;;;3.40;1.15;;;24.10;99.90;;;;;;5036922;28;20196;-79
2023/06/28 10:26:44;;;;;;;1.90;1.20;;;24.30;99.90;;;;;;5035340;28;20281;-83
2023/06/28 10:29:11;;;;;;;3.10;1.25;;;24.40;99.90;;;;;;5036546;28;20208;-82
2023/06/28 10:31:38;;;;;;;1.10;1.02;;;24.40;99.90;;;;;;5036468;28;20227;-81
2023/06/28 10:34:07;;;;;;;3.08;0.98;;;23.60;99.90;;;;;;5036127;28;20207;-81
2023/06/28 10:36:34;;;;;;;3.08;1.33;;;24.10;99.90;;;;;;5036806;28;20226;-83
2023/06/28 10:39:01;;;;;;;2.00;1.40;;;23.90;99.90;;;;;;5037251;28;20286;-79
2023/06/28 10:41:28;;;;;;;2.70;1.58;;;24.00;99.90;;;;;;5034669;28;20621;-80
2023/06/28 10:44:04;;;;;;;4.90;1.40;;;24.30;99.90;;;;;;5035864;28;20207;-81
2023/06/28 10:46:32;;;;;;;2.45;1.30;;;24.60;99.90;;;;;;5035645;28;20292;-79
2023/06/28 10:49:00;;;;;;;2.13;1.40;;;25.00;99.90;;;;;;5036657;28;20206;-81
2023/06/28 10:51:30;;;;;;;2.83;1.60;;;25.00;99.90;;;;;;5035774;28;20216;-80
2023/06/28 10:54:07;;;;;;;3.33;1.65;;;24.60;99.90;;;;;;5015479;28;20199;-82
2023/06/28 10:56:37;;;;;;;2.30;1.45;;;24.20;99.90;;;;;;5016589;28;20204;-81
2023/06/28 10:59:06;;;;;;;2.08;1.27;;;25.00;99.90;;;;;;5016547;28;20211;-82
2023/06/28 11:01:35;;;;;;;4.40;1.40;;;25.30;99.90;;;;;;5016241;28;20226;-81
2023/06/28 11:04:13;;;;;;;4.72;2.13;;;25.60;99.90;;;;;;5017576;28;20224;-80
2023/06/28 11:06:41;;;;;;;4.57;1.52;;;25.10;99.90;;;;;;5017150;28;20228;-82
2023/06/28 11:09:14;;;;;;;4.55;1.70;;;25.30;99.90;;;;;;5017098;28;20204;-81
2023/06/28 11:11:42;;;;;;;4.75;1.55;;;24.60;99.90;;;;;;5016958;28;20310;-81
2023/06/28 11:14:22;;;;;;;3.33;1.60;;;24.70;99.90;;;;;;5015925;28;20200;-78
2023/06/28 11:16:49;;;;;;;4.15;1.45;;;24.90;99.90;;;;;;5017957;28;20212;-82
2023/06/28 11:19:19;;;;;;;4.10;1.92;;;25.30;99.90;;;;;;5020374;28;20207;-81
2023/06/28 11:21:55;;;;;;;3.92;1.80;;;25.00;99.90;;;;;;5019193;28;20232;-80
2023/06/28 11:24:43;;;;;;;4.25;1.92;;;25.00;99.90;;;;;;5019566;28;20204;-77
2023/06/28 11:27:12;;;;;;;3.03;1.60;;;25.20;99.90;;;;;;5011240;28;20216;-81
2023/06/28 11:29:54;;;;;;;3.10;1.70;;;25.30;99.90;;;;;;5020377;28;20208;-78
2023/06/28 11:32:25;;;;;;;4.03;1.77;;;25.70;99.90;;;;;;5017432;28;20228;-81
2023/06/28 11:34:53;;;;;;;3.47;1.70;;;25.50;99.90;;;;;;5019538;28;20205;-78
2023/06/28 11:37:22;;;;;;;4.40;1.70;;;25.40;99.90;;;;;;5019516;28;20207;-80
2023/06/28 11:39:49;;;;;;;3.30;1.88;;;25.00;99.90;;;;;;5019253;28;20262;-81
2023/06/28 11:42:16;;;;;;;3.88;1.67;;;25.10;99.90;;;;;;5019279;28;20311;-81
2023/06/28 11:44:47;;;;;;;4.82;2.03;;;25.10;99.90;;;;;;5019080;28;20208;-80
2023/06/28 11:47:14;;;;;;;1.38;1.27;;;25.70;99.90;;;;;;5021162;28;20226;-82
2023/06/28 11:49:42;;;;;;;4.90;1.90;;;24.80;99.90;;;;;;5038477;28;20195;-80
2023/06/28 11:52:10;;;;;;;4.63;2.20;;;24.50;99.90;;;;;;5040239;28;20285;-78
2023/06/28 11:54:39;;;;;;;2.00;1.70;;;25.10;99.90;;;;;;5040423;28;20266;-79
2023/06/28 11:57:06;;;;;;;4.60;1.70;;;25.00;99.90;;;;;;5039491;28;20559;-81
2023/06/28 11:59:34;;;;;;;4.95;2.17;;;25.00;99.90;;;;;;5038610;28;20203;-79
2023/06/28 12:02:03;;;;;;;3.53;1.75;;;25.70;99.90;;;;;;5038694;28;20228;-82
2023/06/28 12:04:31;;;;;;;2.95;1.95;;;25.50;99.90;;;;;;5037854;28;20196;-81
2023/06/28 12:06:59;;;;;;;3.45;1.60;;;25.50;99.90;;;;;;5019203;28;20267;-83
2023/06/28 12:09:27;;;;;;;3.33;1.85;;;25.80;99.90;;;;;;5038128;28;20206;-80
2023/06/28 12:11:58;;;;;;;2.17;1.95;;;25.90;99.90;;;;;;5038691;28;20707;-82
2023/06/28 12:14:25;;;;;;;3.97;1.75;;;26.10;99.90;;;;;;5036784;28;20203;-80
2023/06/28 12:16:52;;;;;;;2.88;1.60;;;26.10;99.90;;;;;;5037689;28;20210;-80
2023/06/28 12:19:19;;;;;;;3.15;1.90;;;25.90;99.90;;;;;;5039001;28;20235;-80
2023/06/28 12:21:47;;;;;;;2.67;1.70;;;26.00;99.90;;;;;;5039144;28;20219;-81
2023/06/28 12:24:16;;;;;;;5.00;1.90;;;26.00;99.90;;;;;;5035370;28;20196;-78
2023/06/28 12:26:48;;;;;;;3.20;2.08;;;26.20;99.90;;;;;;5038715;28;20310;-82
2023/06/28 12:29:18;;;;;;;3.88;1.95;;;26.60;99.90;;;;;;5035142;28;20203;-81
2023/06/28 12:31:47;;;;;;;3.03;1.90;;;26.60;99.90;;;;;;5039146;28;20215;-81
2023/06/28 12:34:14;;;;;;;3.10;2.20;;;26.90;99.90;;;;;;5040026;28;20203;-82
2023/06/28 12:36:41;;;;;;;3.22;2.22;;;26.80;99.90;;;;;;5038432;28;20222;-81
2023/06/28 12:39:08;;;;;;;3.33;2.00;;;25.70;99.90;;;;;;5039843;28;20202;-80
2023/06/28 12:41:35;;;;;;;3.17;2.35;;;26.00;99.90;;;;;;5041820;28;20215;-78
2023/06/28 12:44:02;;;;;;;3.67;2.20;;;26.50;99.90;;;;;;5043073;28;20203;-80
2023/06/28 12:46:30;;;;;;;4.60;2.03;;;26.90;99.90;;;;;;5043129;28;20699;-79
2023/06/28 12:49:04;;;;;;;2.97;2.20;;;26.90;99.90;;;;;;5043502;28;20209;-78